Time;durP1;ratioP1;P1;durP2;ratioP2;P2;SDS_P1;SDS_P2;PMS_P1;PMS_P2;Temp;Humidity;BMP_temperature;BMP_pressure;BME280_temperature;BME280_humidity;BME280_pressure;Samples;Min_cycle;Max_cycle;Signal;HPM_P1;HPM_P2
2021/11/11 00:02:20;;;;;;;8.40;3.58;;;;;;;6.94;100.00;100657.19;2577619;55;20109;-74
2021/11/11 00:04:48;;;;;;;5.12;2.58;;;;;;;7.00;100.00;100650.66;2574357;55;20558;-71
2021/11/11 00:07:16;;;;;;;5.55;3.35;;;;;;;7.11;100.00;100657.97;2575879;55;20096;-71
2021/11/11 00:09:44;;;;;;;3.90;2.22;;;;;;;7.13;100.00;100663.19;2576818;55;20139;-71
2021/11/11 00:12:12;;;;;;;4.18;2.50;;;;;;;7.15;100.00;100664.78;2576648;55;20114;-71
2021/11/11 00:14:41;;;;;;;5.75;2.40;;;;;;;7.23;100.00;100666.97;2576306;55;20132;-74
2021/11/11 00:17:10;;;;;;;3.67;2.20;;;;;;;7.25;100.00;100675.69;2575996;55;20117;-71
2021/11/11 00:19:38;;;;;;;7.87;2.22;;;;;;;7.25;100.00;100670.38;2577507;55;20132;-71
2021/11/11 00:22:05;;;;;;;9.10;2.10;;;;;;;7.20;100.00;100653.87;2577328;55;20126;-71
2021/11/11 00:24:34;;;;;;;3.67;2.10;;;;;;;7.24;100.00;100652.75;2577952;55;20631;-74
2021/11/11 00:27:02;;;;;;;3.62;1.83;;;;;;;7.28;100.00;100622.41;2576377;55;20637;-74
2021/11/11 00:29:30;;;;;;;4.45;1.77;;;;;;;7.28;100.00;100637.50;2575926;55;20152;-74
2021/11/11 00:31:58;;;;;;;6.20;2.28;;;;;;;7.27;100.00;100647.25;2577251;55;20106;-71
2021/11/11 00:34:28;;;;;;;3.53;1.37;;;;;;;7.32;100.00;100639.88;2577526;55;20116;-70
2021/11/11 00:36:56;;;;;;;3.12;1.60;;;;;;;7.25;100.00;100641.19;2577210;55;20115;-71
2021/11/11 00:39:24;;;;;;;4.55;1.58;;;;;;;7.21;100.00;100637.00;2575478;55;20124;-74
2021/11/11 00:41:52;;;;;;;4.57;1.55;;;;;;;7.15;100.00;100642.72;2576921;55;20109;-74
2021/11/11 00:44:20;;;;;;;8.15;1.60;;;;;;;7.13;100.00;100644.63;2575948;55;20114;-71
2021/11/11 00:46:48;;;;;;;2.45;1.37;;;;;;;7.04;100.00;100635.41;2576470;55;20116;-71
2021/11/11 00:49:16;;;;;;;4.70;1.48;;;;;;;7.02;100.00;100654.09;2575606;55;20171;-74
2021/11/11 00:51:46;;;;;;;4.78;1.75;;;;;;;6.95;100.00;100652.75;2577306;55;20122;-74
2021/11/11 00:54:14;;;;;;;4.50;1.90;;;;;;;6.90;100.00;100649.50;2577174;55;20174;-71
2021/11/11 00:56:42;;;;;;;4.40;2.35;;;;;;;6.91;100.00;100652.06;2575889;55;20105;-74
2021/11/11 00:59:11;;;;;;;5.70;1.92;;;;;;;6.89;100.00;100659.28;2576890;55;20138;-71
2021/11/11 01:01:38;;;;;;;5.22;1.73;;;;;;;6.92;100.00;100661.75;2576640;55;20127;-74
2021/11/11 01:04:07;;;;;;;5.55;2.08;;;;;;;6.98;100.00;100657.84;2576393;55;20118;-74
2021/11/11 01:06:35;;;;;;;6.82;2.28;;;;;;;7.02;100.00;100663.84;2575318;55;20516;-74
2021/11/11 01:09:04;;;;;;;8.88;3.80;;;;;;;7.06;100.00;100665.34;2576644;55;20135;-71
2021/11/11 01:11:32;;;;;;;5.22;1.77;;;;;;;7.05;100.00;100668.94;2576614;55;20135;-74
2021/11/11 01:14:00;;;;;;;9.07;2.53;;;;;;;7.05;100.00;100675.13;2576436;55;20121;-74
2021/11/11 01:16:27;;;;;;;9.50;2.58;;;;;;;7.05;100.00;100675.13;2576801;55;20646;-74
2021/11/11 01:18:56;;;;;;;9.23;2.60;;;;;;;7.08;100.00;100692.66;2575005;55;20544;-74
2021/11/11 01:21:24;;;;;;;3.62;2.15;;;;;;;7.04;100.00;100684.03;2576674;55;20136;-74
2021/11/11 01:23:53;;;;;;;3.90;1.62;;;;;;;7.10;100.00;100688.09;2577126;55;20114;-74
2021/11/11 01:26:23;;;;;;;6.12;2.50;;;;;;;7.15;100.00;100690.47;2575736;55;20113;-70
2021/11/11 01:28:51;;;;;;;5.12;1.80;;;;;;;7.17;100.00;100702.72;2576720;55;20120;-70
2021/11/11 01:31:20;;;;;;;3.37;1.45;;;;;;;7.18;100.00;100699.09;2576311;55;20118;-74
2021/11/11 01:33:49;;;;;;;3.80;1.20;;;;;;;7.21;100.00;100700.69;2576159;55;20113;-70
2021/11/11 01:36:17;;;;;;;3.12;1.15;;;;;;;7.23;100.00;100694.34;2575478;55;20128;-71
2021/11/11 01:38:45;;;;;;;6.32;1.52;;;;;;;7.24;100.00;100689.91;2576911;55;20127;-74
2021/11/11 01:41:13;;;;;;;2.20;1.33;;;;;;;7.31;100.00;100693.88;2576022;55;20117;-70
2021/11/11 01:43:43;;;;;;;4.65;1.37;;;;;;;7.28;100.00;100702.03;2570157;55;20156;-71
2021/11/11 01:46:12;;;;;;;4.25;1.58;;;;;;;7.26;100.00;100705.72;2576177;55;20109;-74
2021/11/11 01:48:40;;;;;;;4.35;1.48;;;;;;;7.27;100.00;100708.28;2576971;55;20142;-74
2021/11/11 01:51:09;;;;;;;1.48;1.15;;;;;;;7.31;100.00;100709.78;2575475;55;20128;-74
2021/11/11 01:53:39;;;;;;;5.20;1.50;;;;;;;7.27;100.00;100716.25;2576292;55;20112;-71
2021/11/11 01:56:08;;;;;;;4.90;1.23;;;;;;;7.33;100.00;100715.88;2576018;55;20114;-70
2021/11/11 01:58:37;;;;;;;1.85;1.02;;;;;;;7.34;100.00;100719.38;2577339;55;20110;-74
2021/11/11 02:01:08;;;;;;;2.47;1.10;;;;;;;7.34;100.00;100714.94;2575001;55;20611;-71
2021/11/11 02:03:40;;;;;;;1.92;1.35;;;;;;;7.32;100.00;100716.84;2571425;55;20124;-70
2021/11/11 02:06:08;;;;;;;3.87;1.30;;;;;;;7.30;100.00;100717.88;2576139;55;20513;-71
2021/11/11 02:08:36;;;;;;;3.35;1.27;;;;;;;7.31;100.00;100725.72;2575696;55;20126;-75
2021/11/11 02:11:04;;;;;;;3.25;1.00;;;;;;;7.31;100.00;100720.41;2576982;55;20120;-74
2021/11/11 02:13:33;;;;;;;8.13;1.50;;;;;;;7.34;100.00;100746.78;2575172;55;20505;-71
2021/11/11 02:16:00;;;;;;;3.97;1.20;;;;;;;7.32;100.00;100746.03;2576460;55;20491;-71
2021/11/11 02:18:31;;;;;;;3.80;1.15;;;;;;;7.24;100.00;100756.25;2575064;55;20141;-75
2021/11/11 02:21:00;;;;;;;5.87;2.22;;;;;;;7.23;100.00;100749.25;2576995;55;20157;-70
2021/11/11 02:23:29;;;;;;;2.90;0.95;;;;;;;7.16;100.00;100745.25;2575744;55;20184;-71
2021/11/11 02:25:59;;;;;;;3.30;1.10;;;;;;;7.12;100.00;100751.69;2577137;55;20166;-74
2021/11/11 02:28:28;;;;;;;3.85;1.05;;;;;;;7.05;100.00;100757.34;2575752;55;20131;-71
2021/11/11 02:30:56;;;;;;;7.28;2.58;;;;;;;7.03;100.00;100751.28;2576255;55;20129;-74
2021/11/11 02:33:32;;;;;;;3.80;1.12;;;;;;;7.00;100.00;100763.88;2576588;55;20533;-74
2021/11/11 02:36:02;;;;;;;6.32;1.95;;;;;;;6.94;100.00;100762.44;2574827;55;20109;-71
2021/11/11 02:38:30;;;;;;;4.07;1.20;;;;;;;6.86;100.00;100772.66;2575887;55;20552;-74
2021/11/11 02:41:00;;;;;;;5.15;1.10;;;;;;;6.91;100.00;100762.63;2575380;55;20639;-71
2021/11/11 02:43:28;;;;;;;2.90;1.40;;;;;;;6.90;100.00;100774.16;2573815;55;20125;-72
2021/11/11 02:45:58;;;;;;;3.03;1.27;;;;;;;6.86;100.00;100784.09;2576611;55;20165;-74
2021/11/11 02:48:27;;;;;;;4.55;1.48;;;;;;;6.88;100.00;100797.28;2576644;55;20120;-70
2021/11/11 02:50:56;;;;;;;2.58;1.23;;;;;;;6.83;100.00;100797.56;2571548;55;20120;-73
2021/11/11 02:53:25;;;;;;;2.70;1.00;;;;;;;6.82;100.00;100799.37;2575949;55;20101;-70
2021/11/11 02:55:53;;;;;;;2.78;1.33;;;;;;;6.81;100.00;100799.44;2575598;55;20109;-71
2021/11/11 02:58:24;;;;;;;3.70;1.52;;;;;;;6.81;100.00;100808.28;2576217;55;20163;-71
2021/11/11 03:00:56;;;;;;;2.83;1.20;;;;;;;6.77;100.00;100819.97;2575533;55;20620;-70
2021/11/11 03:03:24;;;;;;;5.60;1.80;;;;;;;6.73;100.00;100822.91;2574957;55;20180;-71
2021/11/11 03:05:53;;;;;;;3.62;1.50;;;;;;;6.70;100.00;100820.44;2575464;55;20157;-70
2021/11/11 03:08:21;;;;;;;2.47;1.27;;;;;;;6.71;100.00;100815.00;2576206;55;20120;-70
2021/11/11 03:10:51;;;;;;;3.87;1.30;;;;;;;6.70;100.00;100810.66;2570138;55;20117;-74
2021/11/11 03:13:20;;;;;;;3.53;1.40;;;;;;;6.65;100.00;100821.53;2576895;55;20149;-70
2021/11/11 03:15:55;;;;;;;2.80;1.27;;;;;;;6.63;100.00;100814.62;2577683;55;20548;-74
2021/11/11 03:18:23;;;;;;;3.10;1.10;;;;;;;6.51;100.00;100813.50;2575370;55;20117;-70
2021/11/11 03:20:52;;;;;;;3.75;1.20;;;;;;;6.49;100.00;100824.19;2577130;55;20115;-70
2021/11/11 03:23:19;;;;;;;4.47;1.75;;;;;;;6.46;100.00;100826.16;2575693;55;20507;-71
2021/11/11 03:25:48;;;;;;;3.33;0.95;;;;;;;6.49;100.00;100823.34;2576993;55;20097;-75
2021/11/11 03:28:18;;;;;;;3.83;1.30;;;;;;;6.45;100.00;100825.31;2577399;55;20158;-70
2021/11/11 03:30:46;;;;;;;2.65;1.45;;;;;;;6.42;100.00;100830.81;2576818;55;20204;-74
2021/11/11 03:33:14;;;;;;;5.55;1.33;;;;;;;6.37;100.00;100839.00;2576874;55;20148;-70
2021/11/11 03:35:43;;;;;;;3.90;1.65;;;;;;;6.35;100.00;100855.94;2575200;55;20113;-74
2021/11/11 03:38:11;;;;;;;5.60;1.37;;;;;;;6.35;100.00;100842.69;2577248;55;20122;-71
2021/11/11 03:40:42;;;;;;;3.55;1.25;;;;;;;6.36;100.00;100842.59;2576246;55;20125;-71
2021/11/11 03:43:13;;;;;;;3.42;1.77;;;;;;;6.36;100.00;100852.34;2576399;55;20167;-75
2021/11/11 03:45:43;;;;;;;4.47;1.35;;;;;;;6.32;100.00;100859.59;2576859;55;20121;-71
2021/11/11 03:48:11;;;;;;;3.72;1.20;;;;;;;6.28;100.00;100859.84;2577968;55;20100;-71
2021/11/11 03:50:40;;;;;;;1.92;0.95;;;;;;;6.23;100.00;100853.03;2571601;55;20109;-71
2021/11/11 03:53:09;;;;;;;3.10;1.15;;;;;;;6.18;100.00;100851.56;2576959;55;20127;-74
2021/11/11 03:55:37;;;;;;;2.62;1.00;;;;;;;6.19;100.00;100850.63;2575964;55;20177;-74
2021/11/11 03:58:06;;;;;;;6.53;1.23;;;;;;;6.22;100.00;100861.03;2575763;55;20120;-74
2021/11/11 04:00:34;;;;;;;4.65;1.08;;;;;;;6.20;100.00;100869.06;2577639;55;20631;-74
2021/11/11 04:03:05;;;;;;;2.37;1.02;;;;;;;6.18;100.00;100849.75;2576256;55;20110;-75
2021/11/11 04:05:34;;;;;;;2.08;1.08;;;;;;;6.11;100.00;100858.97;2574704;55;20504;-70
2021/11/11 04:08:02;;;;;;;8.40;1.42;;;;;;;6.09;100.00;100850.25;2573359;55;20124;-70
2021/11/11 04:10:30;;;;;;;4.72;1.40;;;;;;;6.02;100.00;100848.91;2573403;55;20678;-74
2021/11/11 04:13:00;;;;;;;3.05;1.27;;;;;;;6.05;100.00;100859.31;2573480;55;20132;-70
2021/11/11 04:15:29;;;;;;;2.37;1.30;;;;;;;5.98;100.00;100841.06;2573336;55;20116;-73
2021/11/11 04:17:57;;;;;;;5.97;1.83;;;;;;;5.91;100.00;100847.66;2573657;55;20171;-74
2021/11/11 04:20:27;;;;;;;4.37;1.20;;;;;;;5.90;100.00;100840.59;2573464;55;20122;-73
2021/11/11 04:22:55;;;;;;;3.45;1.45;;;;;;;5.83;100.00;100841.91;2572871;55;20120;-74
2021/11/11 04:25:28;;;;;;;5.40;1.40;;;;;;;5.87;100.00;100842.59;2573374;55;20496;-74
2021/11/11 04:28:01;;;;;;;1.70;1.20;;;;;;;5.86;100.00;100847.03;2573403;55;20508;-70
2021/11/11 04:30:31;;;;;;;3.40;1.58;;;;;;;5.82;100.00;100848.97;2573323;55;20124;-70
2021/11/11 04:33:01;;;;;;;2.90;1.45;;;;;;;5.81;100.00;100851.69;2568351;55;20121;-70
2021/11/11 04:35:32;;;;;;;5.35;2.08;;;;;;;5.75;100.00;100852.88;2573285;55;20102;-70
2021/11/11 04:38:04;;;;;;;3.95;1.45;;;;;;;5.81;100.00;100859.63;2573336;55;20112;-73
2021/11/11 04:43:48;;;;;;;5.03;1.95;;;;;;;5.75;100.00;100854.69;2546438;56;20668;-70
2021/11/11 04:49:35;;;;;;;3.37;1.55;;;;;;;5.72;100.00;100868.94;2548522;55;20538;-71
2021/11/11 04:52:16;;;;;;;3.20;2.10;;;;;;;5.74;100.00;100872.34;2573312;55;20186;-71
2021/11/11 05:00:48;;;;;;;8.27;2.00;;;;;;;5.55;100.00;100875.09;2573271;55;20661;-73
2021/11/11 05:03:22;;;;;;;4.20;1.60;;;;;;;5.54;100.00;100871.59;2573591;55;20675;-74
2021/11/11 05:05:51;;;;;;;6.87;3.05;;;;;;;5.49;100.00;100873.63;2573240;55;20124;-71
2021/11/11 05:08:20;;;;;;;3.25;1.77;;;;;;;5.42;100.00;100870.44;2573161;55;20179;-74
2021/11/11 05:10:51;;;;;;;5.83;1.87;;;;;;;5.39;100.00;100857.34;2573201;55;20523;-70
2021/11/11 05:13:20;;;;;;;9.32;1.50;;;;;;;5.36;100.00;100854.00;2573210;55;20171;-71
2021/11/11 05:15:48;;;;;;;4.47;2.30;;;;;;;5.35;100.00;100854.94;2573149;55;20106;-70
2021/11/11 05:18:17;;;;;;;3.10;1.30;;;;;;;5.34;100.00;100866.47;2573259;55;20139;-74
2021/11/11 05:20:45;;;;;;;2.62;1.65;;;;;;;5.31;100.00;100859.56;2573294;55;20740;-74
2021/11/11 05:23:13;;;;;;;6.32;1.90;;;;;;;5.28;100.00;100865.00;2573380;55;20496;-74
2021/11/11 05:25:45;;;;;;;4.32;1.30;;;;;;;5.26;100.00;100867.72;2574955;55;20526;-70
2021/11/11 05:28:14;;;;;;;5.90;1.52;;;;;;;5.18;100.00;100869.03;2579841;55;20131;-75
2021/11/11 05:30:42;;;;;;;6.07;1.70;;;;;;;5.08;100.00;100873.94;2575554;55;20640;-74
2021/11/11 05:33:09;;;;;;;4.55;1.83;;;;;;;5.06;100.00;100871.34;2579459;55;20098;-74
2021/11/11 05:35:38;;;;;;;5.80;1.60;;;;;;;5.01;100.00;100878.66;2580217;55;20634;-71
2021/11/11 05:38:06;;;;;;;5.65;1.70;;;;;;;4.98;100.00;100884.97;2583563;55;20116;-71
2021/11/11 05:40:35;;;;;;;3.33;1.87;;;;;;;4.88;100.00;100884.53;2583591;55;20633;-74
2021/11/11 05:43:05;;;;;;;5.57;1.70;;;;;;;4.92;100.00;100890.53;2583566;55;20128;-73
2021/11/11 05:45:33;;;;;;;5.43;1.92;;;;;;;4.93;100.00;100880.84;2583433;55;20619;-70
2021/11/11 05:48:02;;;;;;;7.50;2.00;;;;;;;4.93;100.00;100878.19;2578401;55;20108;-74
2021/11/11 05:50:31;;;;;;;4.12;1.70;;;;;;;4.93;100.00;100886.97;2582995;55;20123;-74
2021/11/11 05:53:00;;;;;;;5.53;1.60;;;;;;;4.87;100.00;100890.78;2580089;55;20645;-74
2021/11/11 05:55:28;;;;;;;5.37;2.65;;;;;;;4.90;100.00;100900.34;2579429;55;20577;-73
2021/11/11 05:57:57;;;;;;;4.60;2.33;;;;;;;4.87;100.00;100901.34;2579643;55;20135;-70
2021/11/11 06:00:28;;;;;;;7.22;3.47;;;;;;;4.87;100.00;100898.69;2575129;55;20676;-71
2021/11/11 06:02:57;;;;;;;6.80;2.10;;;;;;;4.83;100.00;100896.28;2574994;55;20121;-70
2021/11/11 06:05:26;;;;;;;5.57;1.60;;;;;;;4.86;100.00;100890.81;2579351;55;20133;-77
2021/11/11 06:07:54;;;;;;;8.20;2.60;;;;;;;4.81;100.00;100901.66;2579023;55;20123;-76
2021/11/11 06:10:22;;;;;;;5.55;1.87;;;;;;;4.80;100.00;100896.44;2579667;55;20126;-76
2021/11/11 06:12:50;;;;;;;3.83;1.62;;;;;;;4.76;100.00;100893.06;2578755;55;20105;-77
2021/11/11 06:15:18;;;;;;;9.45;1.67;;;;;;;4.76;100.00;100900.12;2577332;55;20131;-68
2021/11/11 06:17:52;;;;;;;7.18;2.83;;;;;;;4.82;100.00;100906.00;2577660;55;20551;-77
2021/11/11 06:20:27;;;;;;;7.07;2.35;;;;;;;4.81;100.00;100906.94;2577380;55;20117;-70
2021/11/11 06:22:55;;;;;;;5.70;2.00;;;;;;;4.82;100.00;100921.87;2576441;55;20121;-78
2021/11/11 06:25:23;;;;;;;9.15;1.83;;;;;;;4.81;100.00;100933.38;2576691;55;20527;-75
2021/11/11 06:27:51;;;;;;;4.07;2.17;;;;;;;4.88;100.00;100918.91;2574769;55;20118;-74
2021/11/11 06:30:19;;;;;;;5.25;1.83;;;;;;;4.93;100.00;100923.97;2577259;55;20171;-71
2021/11/11 06:32:49;;;;;;;3.42;1.95;;;;;;;5.01;100.00;100919.19;2577550;55;20121;-70
2021/11/11 06:35:17;;;;;;;5.62;2.58;;;;;;;5.09;100.00;100929.38;2576419;55;20122;-76
2021/11/11 06:37:45;;;;;;;5.78;1.83;;;;;;;5.19;100.00;100934.22;2576536;55;20118;-69
2021/11/11 06:40:13;;;;;;;7.90;2.20;;;;;;;5.24;100.00;100925.13;2578131;55;20117;-70
2021/11/11 06:42:41;;;;;;;3.80;1.80;;;;;;;5.32;100.00;100914.19;2578246;55;20113;-69
2021/11/11 06:45:12;;;;;;;4.97;2.20;;;;;;;5.40;100.00;100927.03;2573262;55;20947;-69
2021/11/11 06:47:40;;;;;;;3.05;1.73;;;;;;;5.47;100.00;100922.28;2578967;55;20626;-69
2021/11/11 06:50:11;;;;;;;7.37;1.75;;;;;;;5.48;100.00;100908.97;2577073;55;20135;-69
2021/11/11 06:52:40;;;;;;;6.10;1.92;;;;;;;5.51;100.00;100903.53;2576947;55;20106;-69
2021/11/11 06:55:09;;;;;;;5.60;1.92;;;;;;;5.62;100.00;100918.00;2572026;55;20138;-69
2021/11/11 06:57:36;;;;;;;4.82;1.75;;;;;;;5.59;100.00;100924.28;2577243;55;20122;-71
2021/11/11 07:00:09;;;;;;;6.45;1.92;;;;;;;5.34;100.00;100891.16;2577466;55;20130;-69
2021/11/11 07:02:36;;;;;;;5.87;1.73;;;;;;;5.58;100.00;100930.53;2577642;55;20121;-69
2021/11/11 07:05:06;;;;;;;8.70;2.15;;;;;;;5.73;100.00;100949.22;2573569;55;20121;-70
2021/11/11 07:07:35;;;;;;;6.47;1.75;;;;;;;5.74;100.00;100933.25;2578834;55;20157;-69
2021/11/11 07:10:04;;;;;;;7.47;2.30;;;;;;;5.79;100.00;100948.91;2578856;55;20176;-74
2021/11/11 07:12:32;;;;;;;5.20;1.65;;;;;;;5.85;100.00;100953.88;2578899;55;20671;-70
2021/11/11 07:15:00;;;;;;;4.75;1.60;;;;;;;5.92;100.00;100957.94;2573831;55;20117;-69
2021/11/11 07:17:28;;;;;;;8.68;1.85;;;;;;;5.97;100.00;100968.28;2573897;55;20127;-74
2021/11/11 07:19:56;;;;;;;4.18;2.40;;;;;;;5.98;100.00;100965.53;2578890;55;20121;-70
2021/11/11 07:22:24;;;;;;;5.28;2.42;;;;;;;5.96;100.00;100954.19;2578893;55;20117;-69
2021/11/11 07:24:53;;;;;;;3.15;1.42;;;;;;;5.78;100.00;100924.22;2578827;55;20156;-70
2021/11/11 07:27:21;;;;;;;4.25;1.70;;;;;;;5.93;100.00;100954.34;2578782;55;20134;-70
2021/11/11 07:29:49;;;;;;;7.03;1.50;;;;;;;5.93;100.00;100945.53;2578859;55;20632;-69
2021/11/11 07:32:17;;;;;;;3.47;1.67;;;;;;;5.90;100.00;100957.12;2578832;55;20204;-73
2021/11/11 07:34:45;;;;;;;5.40;1.50;;;;;;;5.85;100.00;100953.88;2578836;55;20129;-75
2021/11/11 07:37:12;;;;;;;3.28;1.20;;;;;;;5.94;100.00;100953.41;2578895;55;20111;-75
2021/11/11 07:39:40;;;;;;;3.90;2.08;;;;;;;5.93;100.00;100945.53;2578874;55;20118;-71
2021/11/11 07:42:11;;;;;;;6.43;1.70;;;;;;;6.00;100.00;100957.53;2578985;55;20114;-69
2021/11/11 07:44:38;;;;;;;3.92;1.50;;;;;;;6.01;100.00;100953.06;2578815;55;20120;-75
2021/11/11 07:47:06;;;;;;;6.40;1.73;;;;;;;6.03;100.00;100972.44;2579028;55;20135;-69
2021/11/11 07:49:34;;;;;;;6.30;1.52;;;;;;;6.06;100.00;100966.97;2578816;55;20643;-70
2021/11/11 07:52:02;;;;;;;5.22;2.08;;;;;;;6.12;100.00;100966.66;2578676;55;20140;-74
2021/11/11 07:54:30;;;;;;;4.70;2.17;;;;;;;6.12;100.00;100967.50;2578757;55;20671;-69
2021/11/11 07:56:58;;;;;;;5.65;1.52;;;;;;;6.14;100.00;100980.69;2573410;55;20117;-74
2021/11/11 07:59:27;;;;;;;5.22;1.35;;;;;;;6.15;100.00;100970.94;2578998;55;20153;-74
2021/11/11 08:01:54;;;;;;;6.12;1.90;;;;;;;6.16;100.00;100980.59;2578907;55;20118;-69
2021/11/11 08:04:22;;;;;;;4.65;1.30;;;;;;;6.16;100.00;100972.63;2578733;55;20143;-69
2021/11/11 08:06:50;;;;;;;3.70;1.30;;;;;;;6.19;100.00;100968.03;2578879;55;20110;-75
2021/11/11 08:09:18;;;;;;;4.40;1.75;;;;;;;6.26;100.00;100982.69;2578722;55;20639;-75
2021/11/11 08:11:46;;;;;;;6.03;1.55;;;;;;;6.41;100.00;100977.50;2579011;55;20123;-69
2021/11/11 08:14:13;;;;;;;4.68;1.30;;;;;;;6.68;100.00;100974.28;2573711;55;20618;-75
2021/11/11 08:16:43;;;;;;;6.85;1.40;;;;;;;6.90;100.00;100973.97;2578741;55;20113;-75
2021/11/11 08:19:10;;;;;;;7.30;1.67;;;;;;;7.09;100.00;100975.59;2578666;55;20627;-75
2021/11/11 08:21:38;;;;;;;2.78;1.25;;;;;;;7.20;100.00;100975.84;2578766;55;20113;-70
2021/11/11 08:24:06;;;;;;;6.55;1.60;;;;;;;7.29;100.00;100978.94;2573688;55;20138;-69
2021/11/11 08:26:34;;;;;;;2.83;1.25;;;;;;;7.39;100.00;100982.75;2578833;55;20117;-74
2021/11/11 08:29:02;;;;;;;3.80;1.60;;;;;;;7.57;100.00;100975.53;2578803;55;20120;-74
2021/11/11 08:31:29;;;;;;;2.75;1.10;;;;;;;7.77;100.00;100976.16;2578726;55;20124;-70
2021/11/11 08:33:59;;;;;;;5.30;2.45;;;;;;;7.82;100.00;100987.38;2578673;55;20140;-74
2021/11/11 08:36:27;;;;;;;7.53;1.30;;;;;;;7.84;100.00;100973.97;2578609;55;20578;-75
2021/11/11 08:38:56;;;;;;;4.00;1.00;;;;;;;8.01;100.00;100978.28;2578837;55;20612;-69
2021/11/11 08:41:25;;;;;;;6.82;1.50;;;;;;;8.21;100.00;100977.91;2578694;55;20121;-70
2021/11/11 08:43:53;;;;;;;4.03;1.23;;;;;;;8.28;100.00;100973.09;2578587;55;20109;-75
2021/11/11 08:46:21;;;;;;;6.72;1.55;;;;;;;8.36;100.00;100977.94;2573545;55;20101;-70
2021/11/11 08:48:49;;;;;;;3.28;1.52;;;;;;;8.40;100.00;100966.16;2578635;55;20111;-69
2021/11/11 08:51:18;;;;;;;8.88;2.25;;;;;;;8.53;100.00;100981.41;2578628;55;20138;-74
2021/11/11 08:53:45;;;;;;;2.78;1.20;;;;;;;8.58;100.00;100973.97;2578704;55;20483;-75
2021/11/11 08:56:14;;;;;;;4.62;1.65;;;;;;;8.59;100.00;100973.88;2578518;55;20506;-75
2021/11/11 08:58:41;;;;;;;8.15;2.37;;;;;;;8.77;100.00;100982.50;2578434;55;20109;-74
2021/11/11 09:01:10;;;;;;;4.97;1.60;;;;;;;8.94;99.73;100980.59;2578677;55;20121;-74
2021/11/11 09:03:39;;;;;;;3.90;1.15;;;;;;;9.10;100.00;100966.25;2578548;55;20101;-75
2021/11/11 09:06:07;;;;;;;3.62;2.05;;;;;;;9.19;97.54;100963.00;2578508;55;20108;-75
2021/11/11 09:08:36;;;;;;;3.72;1.52;;;;;;;9.16;95.27;100969.37;2578491;55;20499;-76
2021/11/11 09:11:04;;;;;;;6.03;1.30;;;;;;;9.12;96.71;100961.69;2578591;55;20121;-70
2021/11/11 09:13:33;;;;;;;5.45;2.45;;;;;;;9.10;95.87;100974.25;2578514;55;20119;-75
2021/11/11 09:16:02;;;;;;;5.78;1.37;;;;;;;8.96;93.88;100972.47;2578665;55;20615;-69
2021/11/11 09:18:31;;;;;;;2.97;1.40;;;;;;;8.69;92.92;100970.66;2573392;55;20154;-75
2021/11/11 09:21:04;;;;;;;4.32;1.35;;;;;;;8.63;94.59;100966.56;2578634;55;20113;-70
2021/11/11 09:23:33;;;;;;;2.67;1.30;;;;;;;8.64;94.07;100973.59;2573446;55;20121;-69
2021/11/11 09:26:03;;;;;;;7.22;1.40;;;;;;;8.67;93.31;100968.06;2578533;55;20121;-75
2021/11/11 09:28:31;;;;;;;1.27;1.10;;;;;;;8.74;95.52;100974.72;2578463;55;20151;-74
2021/11/11 09:31:01;;;;;;;2.65;1.00;;;;;;;8.80;92.57;100961.97;2578733;55;20121;-75
2021/11/11 09:33:30;;;;;;;3.37;1.37;;;;;;;8.79;92.86;100961.12;2578517;55;20105;-75
2021/11/11 09:35:58;;;;;;;2.45;0.90;;;;;;;8.87;90.88;100961.50;2578524;55;20117;-74
2021/11/11 09:38:26;;;;;;;4.22;1.30;;;;;;;8.82;91.12;100968.91;2578461;55;20503;-75
2021/11/11 09:40:55;;;;;;;4.90;1.17;;;;;;;8.92;91.43;100963.88;2578386;55;20116;-75
2021/11/11 09:43:25;;;;;;;6.10;1.20;;;;;;;8.95;92.07;100979.63;2578509;55;20112;-75
2021/11/11 09:45:53;;;;;;;2.42;0.98;;;;;;;8.87;90.24;100936.69;2578558;55;20114;-70
2021/11/11 09:48:21;;;;;;;5.05;2.00;;;;;;;9.03;91.50;100974.66;2573328;55;20547;-75
2021/11/11 09:50:48;;;;;;;3.90;1.20;;;;;;;9.14;90.61;100975.78;2578518;55;20109;-75
2021/11/11 09:53:22;;;;;;;4.50;1.33;;;;;;;9.09;90.44;100962.75;2578422;55;20507;-70
2021/11/11 09:58:43;;;;;;;4.07;1.35;;;;;;;9.04;89.16;100975.50;2578316;55;20615;-70
2021/11/11 10:01:17;;;;;;;2.05;0.80;;;;;;;8.96;89.89;100973.34;2578407;55;20139;-70
2021/11/11 10:03:48;;;;;;;3.28;1.25;;;;;;;8.93;91.35;100978.88;2578261;55;20136;-70
2021/11/11 10:06:20;;;;;;;2.95;0.90;;;;;;;8.94;90.01;100980.59;2578496;55;20118;-69
2021/11/11 10:08:50;;;;;;;2.90;1.00;;;;;;;8.87;90.69;100989.91;2578383;55;20161;-75
2021/11/11 10:11:29;;;;;;;4.05;1.23;;;;;;;8.89;90.84;100985.31;2578296;55;20116;-70
2021/11/11 10:14:02;;;;;;;2.60;1.00;;;;;;;8.90;89.62;100987.03;2578398;55;20685;-74
2021/11/11 10:16:34;;;;;;;4.57;1.30;;;;;;;8.89;89.71;100982.66;2578493;55;20124;-75
2021/11/11 10:19:05;;;;;;;4.10;1.12;;;;;;;8.86;89.64;100975.72;2578365;55;20118;-69
2021/11/11 10:21:42;;;;;;;3.45;1.20;;;;;;;8.90;89.45;100963.94;2578986;55;20136;-76
2021/11/11 10:24:37;;;;;;;2.40;0.95;;;;;;;8.99;90.43;100967.81;2579112;55;20104;-75
2021/11/11 10:27:12;;;;;;;1.65;0.73;;;;;;;8.87;88.20;100968.63;2579152;55;20160;-75
2021/11/11 10:29:50;;;;;;;2.95;0.93;;;;;;;8.69;88.97;100971.47;2579155;55;20121;-70
2021/11/11 10:32:22;;;;;;;5.87;1.20;;;;;;;8.49;91.38;100978.03;2574180;55;20621;-75
2021/11/11 10:34:54;;;;;;;9.55;1.80;;;;;;;8.32;91.61;100974.62;2579106;55;20113;-74
2021/11/11 10:37:22;;;;;;;;;;;;;;;8.53;90.89;100973.41;2579444;55;20124;-70
2021/11/11 10:40:00;;;;;;;3.53;1.15;;;;;;;8.17;92.31;100968.44;2578997;55;20040;-70
2021/11/11 10:42:30;;;;;;;2.25;1.15;;;;;;;7.98;93.39;100975.81;2578996;55;20156;-70
2021/11/11 10:45:01;;;;;;;4.12;0.90;;;;;;;7.94;94.43;100968.03;2574079;55;20144;-75
2021/11/11 10:47:31;;;;;;;;;;;;;;;8.16;93.96;100966.72;2579379;55;20133;-74
2021/11/11 10:50:00;;;;;;;4.57;1.50;;;;;;;7.93;94.41;100971.63;2579130;55;20410;-74
2021/11/11 10:52:31;;;;;;;3.87;1.00;;;;;;;7.97;93.64;100969.66;2579015;55;20160;-75
2021/11/11 10:55:01;;;;;;;;;;;;;;;8.21;94.39;100977.06;2579643;55;20114;-74
2021/11/11 10:57:37;;;;;;;3.15;1.02;;;;;;;7.76;94.05;100947.88;2579104;55;19997;-70
2021/11/11 11:00:12;;;;;;;7.72;1.75;;;;;;;7.82;95.53;100973.22;2579058;55;20699;-69
2021/11/11 11:02:55;;;;;;;5.82;2.45;;;;;;;7.87;96.09;100974.66;2579022;55;20117;-70
2021/11/11 11:05:26;;;;;;;3.53;1.20;;;;;;;8.02;95.45;100969.37;2578897;55;20120;-75
2021/11/11 11:07:56;;;;;;;4.03;2.15;;;;;;;8.13;93.80;100958.09;2579000;55;20710;-70
2021/11/11 11:10:24;;;;;;;6.00;1.50;;;;;;;8.64;92.45;100973.59;2579057;55;20113;-70
2021/11/11 11:12:52;;;;;;;5.78;2.22;;;;;;;9.00;88.83;100969.53;2578962;55;20117;-70
2021/11/11 11:15:43;;;;;;;4.45;1.83;;;;;;;9.30;88.03;100972.97;2578967;55;20120;-75
2021/11/11 11:18:13;;;;;;;6.62;2.30;;;;;;;9.51;85.77;100972.50;2578828;55;20507;-76
2021/11/11 11:20:41;;;;;;;7.10;3.08;;;;;;;9.89;83.84;100971.72;2578817;55;20116;-75
2021/11/11 11:23:20;;;;;;;7.87;2.78;;;;;;;9.93;83.19;100933.22;2578985;55;20659;-70
2021/11/11 11:26:05;;;;;;;10.93;4.22;;;;;;;10.50;81.78;100971.09;2578862;55;20117;-76
2021/11/11 11:28:37;;;;;;;9.20;4.35;;;;;;;10.59;79.01;100958.91;2579066;55;20768;-71
2021/11/11 11:31:09;;;;;;;5.03;2.25;;;;;;;10.49;78.43;100960.53;2578953;55;20121;-75
2021/11/11 11:33:42;;;;;;;8.70;3.33;;;;;;;9.98;80.25;100954.22;2578941;55;20119;-76
2021/11/11 11:36:15;;;;;;;7.82;1.70;;;;;;;9.60;81.89;100946.09;2573783;55;20128;-70
2021/11/11 11:38:52;;;;;;;13.02;5.68;;;;;;;9.32;83.23;100947.94;2574092;55;20106;-70
2021/11/11 11:41:27;;;;;;;8.57;4.43;;;;;;;9.19;85.17;100939.03;2579066;55;20114;-75
2021/11/11 11:43:55;;;;;;;14.00;4.35;;;;;;;9.22;84.41;100941.53;2579042;55;20117;-75
2021/11/11 11:46:27;;;;;;;13.70;6.62;;;;;;;9.28;85.05;100951.75;2578808;55;20652;-74
2021/11/11 11:48:55;;;;;;;4.20;1.90;;;;;;;8.97;85.02;100916.50;2578962;55;20116;-70
2021/11/11 11:51:25;;;;;;;15.20;7.55;;;;;;;8.90;85.50;100948.00;2573912;55;20126;-75
2021/11/11 11:54:03;;;;;;;36.88;14.48;;;;;;;8.68;85.82;100947.66;2578792;55;20123;-70